createdAt,value
2019-02-27T00:01:34.204Z,83.00
2019-02-27T00:04:02.519Z,82.70
2019-02-27T00:06:30.494Z,82.70
2019-02-27T00:08:57.832Z,82.90
2019-02-27T00:11:26.864Z,83.40
2019-02-27T00:13:57.835Z,84.40
2019-02-27T00:16:23.269Z,86.00
2019-02-27T00:18:50.505Z,85.80
2019-02-27T00:21:17.762Z,85.20
2019-02-27T00:23:45.285Z,85.10
2019-02-27T00:26:12.627Z,85.80
2019-02-27T00:28:39.876Z,85.60
2019-02-27T00:31:11.150Z,85.50
2019-02-27T00:33:36.427Z,85.80
2019-02-27T00:36:03.753Z,86.10
2019-02-27T00:38:30.989Z,84.60
2019-02-27T00:40:58.273Z,84.60
2019-02-27T00:43:25.960Z,84.40
2019-02-27T00:45:54.761Z,85.10
2019-02-27T00:48:25.965Z,84.90
2019-02-27T00:50:51.118Z,85.00
2019-02-27T00:53:18.348Z,86.10
2019-02-27T00:55:45.598Z,87.50
2019-02-27T00:58:12.977Z,87.70
2019-02-27T01:00:40.207Z,87.80
2019-02-27T01:03:07.519Z,87.50
2019-02-27T01:05:34.764Z,86.80
2019-02-27T01:08:02.109Z,87.10
2019-02-27T01:10:29.363Z,87.40
2019-02-27T01:12:58.115Z,87.80
2019-02-27T01:15:25.766Z,87.60
2019-02-27T01:17:55.026Z,88.50
2019-02-27T01:20:22.217Z,90.00
2019-02-27T01:22:49.438Z,90.40
2019-02-27T01:25:16.682Z,90.40
2019-02-27T01:27:43.909Z,90.60
2019-02-27T01:30:11.962Z,90.80
2019-02-27T01:32:39.174Z,91.10
2019-02-27T01:35:06.922Z,91.30
2019-02-27T01:37:34.146Z,91.60
2019-02-27T01:40:01.395Z,91.20
2019-02-27T01:42:31.960Z,90.80
2019-02-27T01:44:57.982Z,91.00
2019-02-27T01:47:25.189Z,90.80
2019-02-27T01:49:52.547Z,90.80
2019-02-27T01:52:19.878Z,90.90
2019-02-27T01:54:48.955Z,91.30
2019-02-27T01:57:16.358Z,91.80
2019-02-27T01:59:43.702Z,92.10
2019-02-27T02:02:10.914Z,91.80
2019-02-27T02:04:38.653Z,91.80
2019-02-27T02:07:06.657Z,92.10
2019-02-27T02:09:36.466Z,92.10
2019-02-27T02:12:15.942Z,91.80
2019-02-27T02:15:00.598Z,92.00
2019-02-27T02:18:01.812Z,91.90
2019-02-27T02:20:53.401Z,92.10
2019-02-27T02:24:21.193Z,92.10
2019-02-27T02:27:43.118Z,92.30
2019-02-27T02:30:50.819Z,92.20
2019-02-27T02:33:46.564Z,92.70
2019-02-27T02:36:46.295Z,92.60
2019-02-27T02:39:54.206Z,92.70
2019-02-27T02:43:03.114Z,92.70
2019-02-27T02:45:58.211Z,93.30
2019-02-27T02:49:14.972Z,93.40
2019-02-27T02:52:25.695Z,93.40
2019-02-27T02:55:14.585Z,93.20
2019-02-27T02:58:18.794Z,93.30
2019-02-27T03:00:57.815Z,93.30
2019-02-27T03:03:57.434Z,93.10
2019-02-27T03:07:15.543Z,93.40
2019-02-27T03:10:14.561Z,93.60
2019-02-27T03:13:41.666Z,94.10
2019-02-27T03:16:58.526Z,94.60
2019-02-27T03:20:00.466Z,95.20
2019-02-27T03:23:02.875Z,95.50
2019-02-27T03:26:07.698Z,95.30
2019-02-27T03:29:24.627Z,95.00
2019-02-27T03:32:04.389Z,95.30
2019-02-27T03:35:09.498Z,95.20
2019-02-27T03:38:01.124Z,94.80
2019-02-27T03:41:01.755Z,94.60
2019-02-27T03:44:04.746Z,94.80
2019-02-27T03:47:26.160Z,94.70
2019-02-27T03:50:41.519Z,95.00
2019-02-27T03:53:21.193Z,95.70
2019-02-27T03:56:45.164Z,95.70
2019-02-27T03:59:43.870Z,95.90
2019-02-27T04:02:52.692Z,96.30
2019-02-27T04:06:22.875Z,96.70
2019-02-27T04:08:56.989Z,96.70
2019-02-27T04:11:24.693Z,96.70
2019-02-27T04:13:52.203Z,96.50
2019-02-27T04:16:19.560Z,96.50
2019-02-27T04:18:46.898Z,97.10
2019-02-27T04:21:14.443Z,97.00
2019-02-27T04:23:47.969Z,96.90
2019-02-27T04:26:10.966Z,97.30
2019-02-27T04:28:38.178Z,97.40
2019-02-27T04:31:05.426Z,97.30
2019-02-27T04:33:32.653Z,97.30
2019-02-27T04:35:59.933Z,97.20
2019-02-27T04:38:27.522Z,97.20
2019-02-27T04:40:55.493Z,97.40
2019-02-27T04:43:22.729Z,97.10
2019-02-27T04:45:50.255Z,96.80
2019-02-27T04:48:17.521Z,97.00
2019-02-27T04:50:44.818Z,97.30
2019-02-27T04:53:12.303Z,97.50
2019-02-27T04:55:39.531Z,97.60
2019-02-27T04:58:08.945Z,98.30
2019-02-27T05:00:35.886Z,98.10
2019-02-27T05:03:04.032Z,97.80
2019-02-27T05:05:31.531Z,98.30
2019-02-27T05:07:58.762Z,98.20
2019-02-27T05:10:26.130Z,98.10
2019-02-27T05:12:53.363Z,98.40
2019-02-27T05:15:20.586Z,98.80
2019-02-27T05:17:47.873Z,98.30
2019-02-27T05:20:15.129Z,98.60
2019-02-27T05:22:42.360Z,99.60
2019-02-27T05:25:12.099Z,99.40
2019-02-27T05:27:38.934Z,98.80
2019-02-27T05:30:06.698Z,98.90
2019-02-27T05:32:33.953Z,98.50
2019-02-27T05:35:01.201Z,98.10
2019-02-27T05:37:28.446Z,98.60
2019-02-27T05:39:55.665Z,98.70
2019-02-27T05:42:23.001Z,98.50
2019-02-27T05:44:50.337Z,99.00
2019-02-27T05:47:17.598Z,98.50
2019-02-27T05:49:44.850Z,98.10
2019-02-27T05:52:14.356Z,98.20
2019-02-27T05:54:41.219Z,98.50
2019-02-27T05:57:08.449Z,98.20
2019-02-27T05:59:35.685Z,98.10
2019-02-27T06:02:03.155Z,98.20
2019-02-27T06:04:31.332Z,98.70
2019-02-27T06:06:58.593Z,98.70
2019-02-27T06:09:25.922Z,98.50
2019-02-27T06:11:53.275Z,98.60
2019-02-27T06:14:21.417Z,99.00
2019-02-27T06:16:49.338Z,99.10
2019-02-27T06:19:16.582Z,99.00
2019-02-27T06:21:43.942Z,98.80
2019-02-27T06:24:12.565Z,98.80
2019-02-27T06:26:40.309Z,98.70
2019-02-27T06:29:07.534Z,98.90
2019-02-27T06:31:38.814Z,99.40
2019-02-27T06:34:03.925Z,99.60
2019-02-27T06:36:31.157Z,99.80
2019-02-27T06:39:00.325Z,99.90
2019-02-27T06:41:28.119Z,99.70
2019-02-27T06:43:55.442Z,99.90
2019-02-27T06:46:22.705Z,99.90
2019-02-27T06:48:49.954Z,99.90
2019-02-27T06:51:17.298Z,99.90
2019-02-27T06:53:44.946Z,99.90
2019-02-27T06:56:12.182Z,99.90
2019-02-27T06:58:39.402Z,99.90
2019-02-27T07:01:09.179Z,99.60
2019-02-27T07:03:35.782Z,98.90
2019-02-27T07:06:03.030Z,98.70
2019-02-27T07:08:30.249Z,97.80
2019-02-27T07:11:02.207Z,96.80
2019-02-27T07:13:26.849Z,96.00
2019-02-27T07:15:55.761Z,96.40
2019-02-27T07:18:22.977Z,95.00
2019-02-27T07:20:50.255Z,94.70
2019-02-27T07:23:22.649Z,94.40
2019-02-27T07:25:46.710Z,94.80
2019-02-27T07:28:13.955Z,93.40
2019-02-27T07:30:42.613Z,93.60
2019-02-27T07:33:10.309Z,92.90
2019-02-27T07:35:37.634Z,93.00
2019-02-27T07:38:05.166Z,91.70
2019-02-27T07:40:32.382Z,92.00
2019-02-27T07:42:59.626Z,91.50
2019-02-27T07:45:26.834Z,91.40
2019-02-27T07:47:54.061Z,91.80
2019-02-27T07:50:21.295Z,91.50
2019-02-27T07:52:48.513Z,90.70
2019-02-27T07:55:22.017Z,90.90
2019-02-27T07:57:45.091Z,90.20
2019-02-27T08:00:15.141Z,90.10
2019-02-27T08:02:42.933Z,90.30
2019-02-27T08:05:10.302Z,89.40
2019-02-27T08:07:38.422Z,87.50
2019-02-27T08:10:10.540Z,90.00
2019-02-27T08:12:37.569Z,88.90
2019-02-27T08:15:06.645Z,90.00
2019-02-27T08:17:33.889Z,89.40
2019-02-27T08:20:01.210Z,89.60
2019-02-27T08:22:28.454Z,86.90
2019-02-27T08:24:55.706Z,86.50
2019-02-27T08:27:22.953Z,86.80
2019-02-27T08:29:50.163Z,85.70
2019-02-27T08:32:17.425Z,85.30
2019-02-27T08:34:44.654Z,84.80
2019-02-27T08:37:11.905Z,85.00
2019-02-27T08:39:39.139Z,84.40
2019-02-27T08:42:06.365Z,85.00
2019-02-27T08:44:33.566Z,86.40
2019-02-27T08:47:00.787Z,84.30
2019-02-27T08:49:28.005Z,84.70
2019-02-27T08:51:55.354Z,85.00
2019-02-27T08:54:22.645Z,83.60
2019-02-27T08:56:49.882Z,85.10
2019-02-27T08:59:17.086Z,84.20
2019-02-27T09:01:44.411Z,85.30
2019-02-27T09:04:12.303Z,84.80
2019-02-27T09:06:39.795Z,83.90
2019-02-27T09:09:08.222Z,84.20
2019-02-27T09:11:37.151Z,81.60
2019-02-27T09:14:04.558Z,80.90
2019-02-27T09:16:31.813Z,80.50
2019-02-27T09:18:59.050Z,79.40
2019-02-27T09:21:27.910Z,80.30
2019-02-27T09:23:55.429Z,78.30
2019-02-27T09:26:24.260Z,75.60
2019-02-27T09:28:51.662Z,75.50
2019-02-27T09:31:18.931Z,73.70
2019-02-27T09:33:46.189Z,72.30
2019-02-27T09:36:13.494Z,73.90
2019-02-27T09:38:40.729Z,75.00
2019-02-27T09:41:12.208Z,74.00
2019-02-27T09:43:37.564Z,74.60
2019-02-27T09:46:04.805Z,73.10
2019-02-27T09:48:33.434Z,72.60
2019-02-27T09:51:01.145Z,73.00
2019-02-27T09:53:28.397Z,71.10
2019-02-27T09:55:55.730Z,70.80
2019-02-27T09:58:23.071Z,69.30
2019-02-27T10:00:59.057Z,69.90
2019-02-27T10:03:25.600Z,67.30
2019-02-27T10:05:53.086Z,67.20
2019-02-27T10:08:20.435Z,68.10
2019-02-27T10:10:47.675Z,68.40
2019-02-27T10:13:14.902Z,64.50
2019-02-27T10:15:42.113Z,64.80
2019-02-27T10:18:09.342Z,65.10
2019-02-27T10:20:37.235Z,63.30
2019-02-27T10:23:05.299Z,64.80
2019-02-27T10:25:32.628Z,65.60
2019-02-27T10:28:03.257Z,65.00
2019-02-27T10:30:29.096Z,61.90
2019-02-27T10:32:56.413Z,63.20
2019-02-27T10:35:23.641Z,59.20
2019-02-27T10:37:54.217Z,58.80
2019-02-27T10:40:20.418Z,58.20
2019-02-27T10:42:50.385Z,59.90
2019-02-27T10:45:16.758Z,59.80
2019-02-27T10:47:43.975Z,60.90
2019-02-27T10:50:12.564Z,59.90
2019-02-27T10:52:39.954Z,61.30
2019-02-27T10:55:13.896Z,59.40
2019-02-27T10:57:38.582Z,58.20
2019-02-27T11:00:15.362Z,56.90
2019-02-27T11:02:45.124Z,58.40
2019-02-27T11:05:11.702Z,55.40
2019-02-27T11:07:38.931Z,55.50
2019-02-27T11:10:06.583Z,56.00
2019-02-27T11:12:34.788Z,55.40
2019-02-27T11:15:02.030Z,55.10
2019-02-27T11:17:29.344Z,55.50
2019-02-27T11:19:56.574Z,55.20
2019-02-27T11:22:23.797Z,54.50
2019-02-27T11:24:52.450Z,54.20
2019-02-27T11:27:19.870Z,52.50
2019-02-27T11:29:47.095Z,52.80
2019-02-27T11:32:14.313Z,51.40
2019-02-27T11:34:41.555Z,51.30
2019-02-27T11:37:12.977Z,52.60
2019-02-27T11:39:37.980Z,52.40
2019-02-27T11:42:07.112Z,50.80
2019-02-27T11:44:34.390Z,48.80
2019-02-27T11:47:01.657Z,48.40
2019-02-27T11:49:28.882Z,48.20
2019-02-27T11:51:57.037Z,48.60
2019-02-27T11:54:24.449Z,48.00
2019-02-27T11:56:56.310Z,46.90
2019-02-27T11:59:20.817Z,47.60
2019-02-27T12:01:48.046Z,47.30
2019-02-27T12:04:19.303Z,44.60
2019-02-27T12:06:44.409Z,45.30
2019-02-27T12:09:11.922Z,47.20
2019-02-27T12:11:39.164Z,46.30
2019-02-27T12:14:09.000Z,46.60
2019-02-27T12:16:36.553Z,47.10
2019-02-27T12:19:06.429Z,46.40
2019-02-27T12:21:32.898Z,46.50
2019-02-27T12:24:00.110Z,46.40
2019-02-27T12:26:27.442Z,48.30
2019-02-27T12:28:54.684Z,48.80
2019-02-27T12:31:21.893Z,47.70
2019-02-27T12:33:49.114Z,49.50
2019-02-27T12:36:18.660Z,49.20
2019-02-27T12:38:45.561Z,47.40
2019-02-27T12:41:12.785Z,49.80
2019-02-27T12:43:40.130Z,47.70
2019-02-27T12:46:07.354Z,47.30
2019-02-27T12:48:34.888Z,47.30
2019-02-27T12:51:03.723Z,46.60
2019-02-27T12:53:31.250Z,51.50
2019-02-27T12:55:58.523Z,47.30
2019-02-27T12:58:25.742Z,46.00
2019-02-27T13:00:53.003Z,46.40
2019-02-27T13:03:20.253Z,46.90
2019-02-27T13:05:47.573Z,46.40
2019-02-27T13:08:16.416Z,47.80
2019-02-27T13:10:43.898Z,47.40
2019-02-27T13:13:11.150Z,46.50
2019-02-27T13:15:41.142Z,47.20
2019-02-27T13:18:08.594Z,48.10
2019-02-27T13:20:35.821Z,46.30
2019-02-27T13:23:05.112Z,46.90
2019-02-27T13:25:32.314Z,47.10
2019-02-27T13:27:59.589Z,45.50
2019-02-27T13:30:26.909Z,45.10
2019-02-27T13:32:54.145Z,44.20
2019-02-27T13:35:23.200Z,44.70
2019-02-27T13:37:50.613Z,45.60
2019-02-27T13:40:18.436Z,45.40
2019-02-27T13:42:45.749Z,47.40
2019-02-27T13:45:17.749Z,43.00
2019-02-27T13:47:44.985Z,42.40
2019-02-27T13:50:13.463Z,44.70
2019-02-27T13:52:40.695Z,44.80
2019-02-27T13:55:10.846Z,43.50
2019-02-27T13:57:37.699Z,44.40
2019-02-27T14:00:07.086Z,44.40
2019-02-27T14:02:38.441Z,43.50
2019-02-27T14:05:04.201Z,41.90
2019-02-27T14:07:31.402Z,45.20
2019-02-27T14:09:58.626Z,42.10
2019-02-27T14:12:25.862Z,42.60
2019-02-27T14:14:53.803Z,41.30
2019-02-27T14:17:22.557Z,40.50
2019-02-27T14:19:49.782Z,41.00
2019-02-27T14:22:17.029Z,43.50
2019-02-27T14:24:44.259Z,44.00
2019-02-27T14:27:12.072Z,45.10
2019-02-27T14:29:41.322Z,45.20
2019-02-27T14:32:08.657Z,45.80
2019-02-27T14:34:35.895Z,43.90
2019-02-27T14:37:03.296Z,44.40
2019-02-27T14:39:30.626Z,43.50
2019-02-27T14:41:57.971Z,44.40
2019-02-27T14:44:25.221Z,45.30
2019-02-27T14:46:52.554Z,46.50
2019-02-27T14:49:19.794Z,47.80
2019-02-27T14:51:47.026Z,48.80
2019-02-27T14:54:14.333Z,49.20
2019-02-27T14:56:41.906Z,49.70
2019-02-27T14:59:10.122Z,48.70
2019-02-27T15:01:37.357Z,49.10
2019-02-27T15:04:04.585Z,49.70
2019-02-27T15:06:31.850Z,49.30
2019-02-27T15:09:03.367Z,49.90
2019-02-27T15:11:28.208Z,49.20
2019-02-27T15:13:55.418Z,49.10
2019-02-27T15:16:22.681Z,49.20
2019-02-27T15:18:50.087Z,48.00
2019-02-27T15:21:17.305Z,48.50
2019-02-27T15:23:44.554Z,49.10
2019-02-27T15:26:13.665Z,48.90
2019-02-27T15:28:41.732Z,46.60
2019-02-27T15:31:09.067Z,46.00
2019-02-27T15:33:39.084Z,46.00
2019-02-27T15:36:05.407Z,47.00
2019-02-27T15:38:32.636Z,47.50
2019-02-27T15:41:02.118Z,47.70
2019-02-27T15:43:28.965Z,46.80
2019-02-27T15:45:56.194Z,46.70
2019-02-27T15:48:23.409Z,46.40
2019-02-27T15:50:50.646Z,46.30
2019-02-27T15:53:17.881Z,46.60
2019-02-27T15:55:45.109Z,46.60
2019-02-27T15:58:12.313Z,45.80
2019-02-27T16:00:39.542Z,45.90
2019-02-27T16:03:10.681Z,45.70
2019-02-27T16:05:35.972Z,45.80
2019-02-27T16:08:03.196Z,44.90
2019-02-27T16:10:30.426Z,44.60
2019-02-27T16:13:01.037Z,45.50
2019-02-27T16:15:26.872Z,46.70
2019-02-27T16:17:54.264Z,47.10
2019-02-27T16:20:21.536Z,47.70
2019-02-27T16:22:48.752Z,47.60
2019-02-27T16:25:19.953Z,47.70
2019-02-27T16:27:46.980Z,48.90
2019-02-27T16:30:16.872Z,52.00
2019-02-27T16:32:47.965Z,53.40
2019-02-27T16:35:13.254Z,56.20
2019-02-27T16:37:40.489Z,56.40
2019-02-27T16:40:09.365Z,56.90
2019-02-27T16:42:39.087Z,57.70
2019-02-27T16:45:09.311Z,57.60
2019-02-27T16:47:36.674Z,58.10
2019-02-27T16:50:04.630Z,58.70
2019-02-27T16:52:32.059Z,58.50
2019-02-27T16:55:01.286Z,58.40
2019-02-27T16:57:29.289Z,58.60
2019-02-27T16:59:56.557Z,58.50
2019-02-27T17:02:23.798Z,59.00
2019-02-27T17:04:51.001Z,59.90
2019-02-27T17:07:18.282Z,59.60
2019-02-27T17:09:45.519Z,60.20
2019-02-27T17:12:13.102Z,60.10
2019-02-27T17:14:40.766Z,60.60
2019-02-27T17:17:07.997Z,61.60
2019-02-27T17:19:36.709Z,63.30
2019-02-27T17:22:04.377Z,64.50
2019-02-27T17:24:31.606Z,64.30
2019-02-27T17:26:58.858Z,64.10
2019-02-27T17:29:26.752Z,65.40
2019-02-27T17:31:55.618Z,65.90
2019-02-27T17:34:23.303Z,66.60
2019-02-27T17:36:50.526Z,67.10
2019-02-27T17:39:17.802Z,67.20
2019-02-27T17:41:45.405Z,67.50
2019-02-27T17:44:12.755Z,67.30
2019-02-27T17:46:40.078Z,68.80
2019-02-27T17:49:07.383Z,68.70
2019-02-27T17:51:34.634Z,69.00
2019-02-27T17:54:01.989Z,69.70
2019-02-27T17:56:30.560Z,69.60
2019-02-27T17:58:58.057Z,70.20
2019-02-27T18:01:26.241Z,70.60
2019-02-27T18:03:53.613Z,71.60
2019-02-27T18:06:20.834Z,71.90
2019-02-27T18:08:51.687Z,72.00
2019-02-27T18:11:17.299Z,72.40
2019-02-27T18:13:44.536Z,72.80
2019-02-27T18:16:12.158Z,73.00
2019-02-27T18:18:43.361Z,72.70
2019-02-27T18:21:08.633Z,73.90
2019-02-27T18:23:35.934Z,73.50
2019-02-27T18:26:03.202Z,74.10
2019-02-27T18:28:32.977Z,75.00
2019-02-27T18:30:59.841Z,75.10
2019-02-27T18:33:27.053Z,75.50
2019-02-27T18:35:54.599Z,75.40
2019-02-27T18:38:22.096Z,75.20
2019-02-27T18:40:49.348Z,74.40
2019-02-27T18:43:16.622Z,74.60
2019-02-27T18:45:43.946Z,76.10
2019-02-27T18:48:11.450Z,76.50
2019-02-27T18:50:38.741Z,76.70
2019-02-27T18:53:07.471Z,77.50
2019-02-27T18:55:34.911Z,79.20
2019-02-27T18:58:02.154Z,78.20
2019-02-27T19:00:29.585Z,78.00
2019-02-27T19:02:57.006Z,78.60
2019-02-27T19:05:24.231Z,77.80
2019-02-27T19:07:54.832Z,78.50
2019-02-27T19:10:21.088Z,79.70
2019-02-27T19:12:48.432Z,80.80
2019-02-27T19:15:16.970Z,81.80
2019-02-27T19:17:44.390Z,81.80
2019-02-27T19:20:12.877Z,81.00
2019-02-27T19:22:42.846Z,81.00
2019-02-27T19:25:09.446Z,80.50
2019-02-27T19:27:37.627Z,81.10
2019-02-27T19:30:07.354Z,82.20
2019-02-27T19:32:34.736Z,82.00
2019-02-27T19:35:02.001Z,82.60
2019-02-27T19:37:29.401Z,83.30
2019-02-27T19:39:57.107Z,84.00
2019-02-27T19:42:24.707Z,83.10
2019-02-27T19:44:51.946Z,83.00
2019-02-27T19:47:19.171Z,82.90
2019-02-27T19:49:46.506Z,82.90
2019-02-27T19:52:13.849Z,83.00
2019-02-27T19:54:41.106Z,82.60
2019-02-27T19:57:09.259Z,82.10
2019-02-27T19:59:36.558Z,81.60
2019-02-27T20:02:03.785Z,81.20
2019-02-27T20:04:31.109Z,81.40
2019-02-27T20:07:01.840Z,81.90
2019-02-27T20:09:27.854Z,81.80
2019-02-27T20:11:55.237Z,81.90
2019-02-27T20:14:22.474Z,83.40
2019-02-27T20:16:49.803Z,83.10
2019-02-27T20:19:22.330Z,83.70
2019-02-27T20:21:46.255Z,83.70
2019-02-27T20:24:14.720Z,83.20
2019-02-27T20:26:44.812Z,83.00
2019-02-27T20:29:12.074Z,83.10
2019-02-27T20:31:39.710Z,82.90
2019-02-27T20:34:10.646Z,83.20
2019-02-27T20:36:36.093Z,83.60
2019-02-27T20:39:05.271Z,83.50
2019-02-27T20:41:32.672Z,84.70
2019-02-27T20:44:00.339Z,84.70
2019-02-27T20:46:29.153Z,84.70
2019-02-27T20:48:56.382Z,83.80
2019-02-27T20:51:23.611Z,84.20
2019-02-27T20:53:52.583Z,84.50
2019-02-27T20:56:20.022Z,84.80
2019-02-27T20:58:51.127Z,84.90
2019-02-27T21:01:16.394Z,85.30
2019-02-27T21:03:43.623Z,85.90
2019-02-27T21:06:12.875Z,85.40
2019-02-27T21:08:39.991Z,85.60
2019-02-27T21:11:07.221Z,86.00
2019-02-27T21:13:34.466Z,86.40
2019-02-27T21:16:03.952Z,86.70
2019-02-27T21:18:32.555Z,86.30
2019-02-27T21:20:59.973Z,86.80
2019-02-27T21:23:27.276Z,87.00
2019-02-27T21:25:54.523Z,86.80
2019-02-27T21:28:21.794Z,87.00
2019-02-27T21:30:51.848Z,87.50
2019-02-27T21:33:18.318Z,87.90
2019-02-27T21:35:45.585Z,88.30
2019-02-27T21:38:12.902Z,88.90
2019-02-27T21:40:40.142Z,88.50
2019-02-27T21:43:07.474Z,88.40
2019-02-27T21:45:37.084Z,88.40
2019-02-27T21:48:03.817Z,88.10
2019-02-27T21:50:31.465Z,88.40
2019-02-27T21:52:58.731Z,88.80
2019-02-27T21:55:26.137Z,88.80
2019-02-27T21:57:53.374Z,89.20
2019-02-27T22:00:22.418Z,89.60
2019-02-27T22:02:49.813Z,90.10
2019-02-27T22:05:18.923Z,90.40
2019-02-27T22:07:47.245Z,90.40
2019-02-27T22:10:19.056Z,90.30
2019-02-27T22:12:44.019Z,90.30
2019-02-27T22:15:21.811Z,90.00
2019-02-27T22:17:46.218Z,89.80
2019-02-27T22:20:13.638Z,89.10
2019-02-27T22:22:41.518Z,89.00
2019-02-27T22:25:09.832Z,89.90
2019-02-27T22:27:37.097Z,90.00
2019-02-27T22:30:05.651Z,90.10
2019-02-27T22:32:32.988Z,90.30
2019-02-27T22:35:02.777Z,90.30
2019-02-27T22:37:29.350Z,90.30
2019-02-27T22:39:56.577Z,90.20
2019-02-27T22:42:23.916Z,89.50
2019-02-27T22:44:51.198Z,90.00
2019-02-27T22:47:21.351Z,89.90
2019-02-27T22:49:47.554Z,90.30
2019-02-27T22:52:14.782Z,90.30
2019-02-27T22:54:42.109Z,90.70
2019-02-27T22:57:09.350Z,91.00
2019-02-27T22:59:37.357Z,91.10
2019-02-27T23:02:05.632Z,90.80
2019-02-27T23:04:33.345Z,90.60
2019-02-27T23:07:00.684Z,90.50
2019-02-27T23:09:28.298Z,89.90
2019-02-27T23:11:55.550Z,89.60
2019-02-27T23:14:22.809Z,89.20
2019-02-27T23:16:50.043Z,89.20
2019-02-27T23:19:17.369Z,89.10
2019-02-27T23:21:44.746Z,89.70
2019-02-27T23:24:11.974Z,90.20
2019-02-27T23:26:39.214Z,90.20
2019-02-27T23:29:06.531Z,90.40
2019-02-27T23:31:33.915Z,90.30
2019-02-27T23:34:01.149Z,90.40
2019-02-27T23:36:28.376Z,90.20
2019-02-27T23:38:55.613Z,89.80
2019-02-27T23:41:23.805Z,89.10
2019-02-27T23:43:51.285Z,90.00
2019-02-27T23:46:19.194Z,90.10
2019-02-27T23:48:46.669Z,90.40
2019-02-27T23:51:16.780Z,90.20
2019-02-27T23:53:43.202Z,90.20
2019-02-27T23:56:10.610Z,90.20
2019-02-27T23:58:38.049Z,89.90
